createdAt,value
2018-02-22T00:00:32.021Z,93.56
2018-02-22T00:01:32.017Z,93.75
2018-02-22T00:02:31.922Z,93.94
2018-02-22T00:03:31.920Z,93.47
2018-02-22T00:04:31.849Z,93.32
2018-02-22T00:05:31.824Z,93.61
2018-02-22T00:06:31.792Z,93.32
2018-02-22T00:07:31.759Z,93.23
2018-02-22T00:08:31.804Z,93.32
2018-02-22T00:09:31.693Z,94.18
2018-02-22T00:10:31.667Z,93.99
2018-02-22T00:11:31.631Z,94.74
2018-02-22T00:12:31.591Z,94.56
2018-02-22T00:13:31.556Z,94.27
2018-02-22T00:14:31.509Z,93.89
2018-02-22T00:15:31.620Z,93.42
2018-02-22T00:16:31.447Z,93.51
2018-02-22T00:17:31.418Z,94.74
2018-02-22T00:18:31.384Z,94.27
2018-02-22T00:19:31.444Z,93.89
2018-02-22T00:20:31.352Z,93.99
2018-02-22T00:21:31.304Z,94.18
2018-02-22T00:22:31.297Z,94.18
2018-02-22T00:23:31.358Z,94.46
2018-02-22T00:24:31.167Z,94.65
2018-02-22T00:25:31.157Z,94.46
2018-02-22T00:26:31.101Z,94.56
2018-02-22T00:27:31.097Z,94.56
2018-02-22T00:28:31.035Z,94.37
2018-02-22T00:29:31.007Z,94.65
2018-02-22T00:30:31.007Z,94.84
2018-02-22T00:31:31.115Z,94.46
2018-02-22T00:32:30.913Z,94.18
2018-02-22T00:33:30.872Z,94.65
2018-02-22T00:34:30.931Z,94.18
2018-02-22T00:35:30.805Z,94.56
2018-02-22T00:36:30.837Z,95.21
2018-02-22T00:37:30.737Z,95.03
2018-02-22T00:38:30.650Z,95.03
2018-02-22T00:39:30.611Z,94.93
2018-02-22T00:40:30.571Z,95.03
2018-02-22T00:41:30.538Z,95.12
2018-02-22T00:42:30.507Z,95.12
2018-02-22T00:43:30.478Z,94.74
2018-02-22T00:44:30.480Z,94.74
2018-02-22T00:45:30.501Z,95.21
2018-02-22T00:46:30.382Z,94.93
2018-02-22T00:47:30.382Z,94.74
2018-02-22T00:48:30.312Z,94.56
2018-02-22T00:49:30.374Z,94.46
2018-02-22T00:50:30.321Z,94.84
2018-02-22T00:51:30.197Z,95.21
2018-02-22T00:52:30.162Z,95.88
2018-02-22T00:53:30.144Z,95.78
2018-02-22T00:54:30.185Z,95.78
2018-02-22T00:55:30.067Z,95.88
2018-02-22T00:56:30.034Z,95.69
2018-02-22T00:57:29.994Z,95.31
2018-02-22T00:58:29.983Z,95.88
2018-02-22T00:59:29.928Z,95.50
2018-02-22T01:00:29.892Z,95.59
2018-02-22T01:01:30.002Z,95.31
2018-02-22T01:02:29.912Z,95.50
2018-02-22T01:03:29.790Z,95.31
2018-02-22T01:04:29.761Z,95.69
2018-02-22T01:05:29.747Z,95.88
2018-02-22T01:06:29.756Z,95.40
2018-02-22T01:07:29.652Z,94.93
2018-02-22T01:08:29.620Z,94.93
2018-02-22T01:09:29.596Z,94.74
2018-02-22T01:10:29.572Z,95.69
2018-02-22T01:11:29.519Z,95.78
2018-02-22T01:12:29.478Z,95.78
2018-02-22T01:13:29.444Z,95.59
2018-02-22T01:14:29.411Z,95.78
2018-02-22T01:15:29.429Z,95.69
2018-02-22T01:16:29.350Z,95.78
2018-02-22T01:17:29.383Z,95.59
2018-02-22T01:18:29.278Z,95.78
2018-02-22T01:19:29.243Z,95.50
2018-02-22T01:20:29.297Z,95.31
2018-02-22T01:21:29.181Z,95.88
2018-02-22T01:22:29.245Z,95.50
2018-02-22T01:23:29.115Z,95.03
2018-02-22T01:24:29.072Z,95.69
2018-02-22T01:25:29.032Z,95.78
2018-02-22T01:26:29.158Z,95.03
2018-02-22T01:27:28.975Z,95.40
2018-02-22T01:28:28.933Z,94.65
2018-02-22T01:29:28.980Z,95.50
2018-02-22T01:30:28.871Z,94.93
2018-02-22T01:31:28.827Z,95.88
2018-02-22T01:32:28.816Z,95.97
2018-02-22T01:33:28.763Z,95.78
2018-02-22T01:34:28.799Z,95.40
2018-02-22T01:35:28.698Z,95.88
2018-02-22T01:36:28.653Z,95.69
2018-02-22T01:37:28.619Z,95.50
2018-02-22T01:38:28.696Z,95.69
2018-02-22T01:39:28.644Z,95.78
2018-02-22T01:40:28.536Z,95.78
2018-02-22T01:41:28.513Z,96.26
2018-02-22T01:42:28.459Z,96.16
2018-02-22T01:43:28.421Z,96.07
2018-02-22T01:44:28.385Z,95.88
2018-02-22T01:45:28.434Z,96.07
2018-02-22T01:46:28.323Z,96.26
2018-02-22T01:47:28.279Z,96.07
2018-02-22T01:48:28.246Z,95.88
2018-02-22T01:49:28.250Z,96.26
2018-02-22T01:50:28.188Z,96.54
2018-02-22T01:51:28.665Z,96.45
2018-02-22T01:52:28.114Z,95.97
2018-02-22T01:53:28.082Z,96.07
2018-02-22T01:54:28.095Z,96.16
2018-02-22T01:55:28.049Z,96.35
2018-02-22T01:56:28.008Z,96.26
2018-02-22T01:57:28.036Z,95.88
2018-02-22T01:58:27.907Z,95.88
2018-02-22T01:59:27.867Z,95.69
2018-02-22T02:00:27.962Z,95.88
2018-02-22T02:01:27.798Z,96.26
2018-02-22T02:02:27.792Z,95.59
2018-02-22T02:03:27.730Z,95.97
2018-02-22T02:04:27.809Z,95.50
2018-02-22T02:05:27.707Z,95.40
2018-02-22T02:06:27.631Z,95.40
2018-02-22T02:07:27.588Z,95.97
2018-02-22T02:08:27.563Z,95.88
2018-02-22T02:09:27.534Z,95.78
2018-02-22T02:10:27.485Z,96.16
2018-02-22T02:11:27.455Z,96.92
2018-02-22T02:12:27.433Z,97.15
2018-02-22T02:13:27.482Z,96.16
2018-02-22T02:14:27.359Z,96.16
2018-02-22T02:15:27.322Z,95.97
2018-02-22T02:16:27.285Z,96.07
2018-02-22T02:17:27.247Z,95.83
2018-02-22T02:18:27.214Z,96.21
2018-02-22T02:19:27.186Z,96.35
2018-02-22T02:20:27.235Z,95.88
2018-02-22T02:21:27.105Z,95.97
2018-02-22T02:22:27.073Z,95.83
2018-02-22T02:23:27.044Z,95.78
2018-02-22T02:24:27.012Z,96.64
2018-02-22T02:25:26.979Z,95.88
2018-02-22T02:26:26.934Z,95.97
2018-02-22T02:27:26.920Z,96.64
2018-02-22T02:28:26.910Z,95.97
2018-02-22T02:29:26.839Z,95.50
2018-02-22T02:30:26.858Z,95.69
2018-02-22T02:31:26.783Z,95.59
2018-02-22T02:32:26.762Z,96.07
2018-02-22T02:33:26.821Z,95.97
2018-02-22T02:34:26.671Z,95.88
2018-02-22T02:35:26.639Z,95.88
2018-02-22T02:36:26.590Z,95.59
2018-02-22T02:37:26.575Z,95.59
2018-02-22T02:38:26.526Z,95.40
2018-02-22T02:39:26.581Z,95.50
2018-02-22T02:40:26.481Z,95.78
2018-02-22T02:41:26.420Z,95.88
2018-02-22T02:42:26.412Z,95.50
2018-02-22T02:43:26.372Z,95.78
2018-02-22T02:44:26.338Z,95.69
2018-02-22T02:45:26.278Z,95.69
2018-02-22T02:46:26.334Z,95.78
2018-02-22T02:47:26.218Z,95.69
2018-02-22T02:48:26.202Z,95.45
2018-02-22T02:49:26.233Z,96.02
2018-02-22T02:50:26.154Z,96.07
2018-02-22T02:51:26.076Z,95.97
2018-02-22T02:52:26.060Z,96.07
2018-02-22T02:53:26.061Z,95.88
2018-02-22T02:54:25.969Z,95.59
2018-02-22T02:55:25.959Z,95.78
2018-02-22T02:56:25.942Z,95.88
2018-02-22T02:57:25.939Z,96.16
2018-02-22T02:58:25.833Z,95.88
2018-02-22T02:59:25.836Z,95.92
2018-02-22T03:00:25.781Z,96.21
2018-02-22T03:01:25.734Z,95.73
2018-02-22T03:02:25.732Z,96.02
2018-02-22T03:03:25.662Z,96.26
2018-02-22T03:04:25.626Z,95.97
2018-02-22T03:05:25.651Z,95.69
2018-02-22T03:06:25.548Z,95.50
2018-02-22T03:07:25.593Z,95.78
2018-02-22T03:08:25.489Z,95.50
2018-02-22T03:09:25.456Z,95.83
2018-02-22T03:10:25.642Z,95.78
2018-02-22T03:11:25.486Z,95.92
2018-02-22T03:12:25.431Z,95.92
2018-02-22T03:13:25.319Z,95.73
2018-02-22T03:14:25.276Z,95.83
2018-02-22T03:15:25.303Z,96.02
2018-02-22T03:16:25.267Z,96.02
2018-02-22T03:17:25.204Z,96.68
2018-02-22T03:18:25.252Z,96.78
2018-02-22T03:19:25.103Z,96.40
2018-02-22T03:20:25.066Z,96.16
2018-02-22T03:21:25.060Z,95.64
2018-02-22T03:22:25.036Z,96.02
2018-02-22T03:23:24.972Z,95.73
2018-02-22T03:24:25.030Z,96.21
2018-02-22T03:25:24.897Z,96.26
2018-02-22T03:26:24.886Z,96.26
2018-02-22T03:27:24.837Z,95.83
2018-02-22T03:28:24.800Z,95.92
2018-02-22T03:29:24.756Z,95.92
2018-02-22T03:30:24.729Z,96.30
2018-02-22T03:31:24.767Z,95.97
2018-02-22T03:32:24.648Z,95.92
2018-02-22T03:33:24.627Z,96.21
2018-02-22T03:34:24.652Z,97.06
2018-02-22T03:35:24.546Z,96.49
2018-02-22T03:36:24.528Z,96.78
2018-02-22T03:37:24.525Z,96.68
2018-02-22T03:38:24.541Z,96.68
2018-02-22T03:39:24.461Z,96.59
2018-02-22T03:40:24.375Z,97.25
2018-02-22T03:41:24.343Z,97.25
2018-02-22T03:42:24.318Z,96.59
2018-02-22T03:43:24.360Z,96.59
2018-02-22T03:44:24.248Z,96.49
2018-02-22T03:45:24.207Z,97.34
2018-02-22T03:46:24.244Z,96.96
2018-02-22T03:47:24.191Z,97.34
2018-02-22T03:48:24.126Z,96.96
2018-02-22T03:49:24.090Z,97.53
2018-02-22T03:50:24.027Z,96.96
2018-02-22T03:51:23.995Z,97.34
2018-02-22T03:52:23.961Z,97.15
2018-02-22T03:53:24.045Z,97.06
2018-02-22T03:54:23.996Z,97.34
2018-02-22T03:55:23.847Z,97.15
2018-02-22T03:56:23.813Z,97.15
2018-02-22T03:57:23.782Z,96.78
2018-02-22T03:58:23.742Z,97.34
2018-02-22T03:59:23.719Z,97.44
2018-02-22T04:00:23.679Z,97.34
2018-02-22T04:01:23.708Z,96.78
2018-02-22T04:02:23.605Z,96.96
2018-02-22T04:03:23.575Z,96.87
2018-02-22T04:04:23.693Z,96.87
2018-02-22T04:05:23.507Z,96.96
2018-02-22T04:06:23.476Z,97.06
2018-02-22T04:07:23.580Z,97.25
2018-02-22T04:08:23.397Z,97.25
2018-02-22T04:09:23.373Z,97.63
2018-02-22T04:10:23.424Z,97.15
2018-02-22T04:11:23.297Z,96.96
2018-02-22T04:12:23.265Z,97.25
2018-02-22T04:13:23.263Z,97.34
2018-02-22T04:14:23.185Z,97.15
2018-02-22T04:15:23.152Z,97.15
2018-02-22T04:16:23.141Z,97.53
2018-02-22T04:17:23.097Z,97.15
2018-02-22T04:18:23.080Z,97.25
2018-02-22T04:19:23.031Z,97.15
2018-02-22T04:20:22.979Z,96.78
2018-02-22T04:21:23.020Z,96.78
2018-02-22T04:22:22.963Z,97.72
2018-02-22T04:23:22.876Z,97.06
2018-02-22T04:24:22.843Z,96.87
2018-02-22T04:25:22.841Z,97.06
2018-02-22T04:26:22.809Z,97.25
2018-02-22T04:27:22.737Z,97.34
2018-02-22T04:28:22.702Z,97.34
2018-02-22T04:29:22.735Z,97.44
2018-02-22T04:30:22.664Z,97.34
2018-02-22T04:31:22.592Z,96.87
2018-02-22T04:32:22.569Z,97.63
2018-02-22T04:33:22.522Z,96.87
2018-02-22T04:34:22.558Z,97.34
2018-02-22T04:35:22.475Z,97.25
2018-02-22T04:36:22.424Z,97.06
2018-02-22T04:37:22.399Z,97.81
2018-02-22T04:38:22.358Z,97.34
2018-02-22T04:39:22.328Z,97.63
2018-02-22T04:40:22.277Z,98.00
2018-02-22T04:41:22.321Z,97.91
2018-02-22T04:42:22.216Z,98.00
2018-02-22T04:43:22.192Z,98.10
2018-02-22T04:44:22.218Z,98.19
2018-02-22T04:45:22.114Z,97.72
2018-02-22T04:46:22.084Z,98.19
2018-02-22T04:47:22.067Z,97.81
2018-02-22T04:48:22.083Z,97.81
2018-02-22T04:49:21.972Z,98.10
2018-02-22T04:50:21.955Z,97.63
2018-02-22T04:51:21.941Z,97.72
2018-02-22T04:52:21.862Z,97.81
2018-02-22T04:53:21.841Z,97.63
2018-02-22T04:54:21.822Z,97.63
2018-02-22T04:55:21.756Z,97.25
2018-02-22T04:56:21.839Z,97.34
2018-02-22T04:57:21.687Z,97.34
2018-02-22T04:58:21.651Z,97.91
2018-02-22T04:59:21.626Z,97.53
2018-02-22T05:00:21.643Z,97.53
2018-02-22T05:01:21.549Z,97.53
2018-02-22T05:02:21.563Z,97.91
2018-02-22T05:03:21.483Z,98.10
2018-02-22T05:04:21.490Z,97.72
2018-02-22T05:05:21.410Z,97.15
2018-02-22T05:06:21.373Z,97.81
2018-02-22T05:07:21.338Z,98.00
2018-02-22T05:08:21.510Z,97.91
2018-02-22T05:09:21.396Z,96.96
2018-02-22T05:10:21.234Z,97.81
2018-02-22T05:11:21.196Z,97.06
2018-02-22T05:12:21.291Z,97.15
2018-02-22T05:13:21.124Z,97.53
2018-02-22T05:14:21.097Z,97.25
2018-02-22T05:15:21.074Z,97.34
2018-02-22T05:16:21.130Z,97.63
2018-02-22T05:17:20.999Z,97.53
2018-02-22T05:18:20.988Z,96.87
2018-02-22T05:19:21.052Z,98.00
2018-02-22T05:20:20.888Z,97.91
2018-02-22T05:21:20.863Z,97.91
2018-02-22T05:22:20.821Z,98.19
2018-02-22T05:23:20.779Z,97.81
2018-02-22T05:24:20.740Z,97.91
2018-02-22T05:25:20.709Z,97.63
2018-02-22T05:26:20.672Z,98.38
2018-02-22T05:27:20.634Z,98.38
2018-02-22T05:28:20.621Z,98.66
2018-02-22T05:29:20.609Z,98.10
2018-02-22T05:30:20.620Z,98.00
2018-02-22T05:31:20.498Z,98.66
2018-02-22T05:32:20.475Z,98.57
2018-02-22T05:33:20.528Z,98.28
2018-02-22T05:34:20.433Z,98.57
2018-02-22T05:35:20.369Z,98.47
2018-02-22T05:36:20.329Z,98.10
2018-02-22T05:37:20.304Z,98.10
2018-02-22T05:38:20.260Z,98.76
2018-02-22T05:39:20.217Z,98.66
2018-02-22T05:40:20.234Z,98.10
2018-02-22T05:41:20.151Z,98.66
2018-02-22T05:42:20.109Z,98.28
2018-02-22T05:43:20.195Z,98.66
2018-02-22T05:44:20.046Z,98.19
2018-02-22T05:45:20.072Z,98.47
2018-02-22T05:46:20.096Z,98.38
2018-02-22T05:47:19.966Z,98.57
2018-02-22T05:48:19.907Z,98.19
2018-02-22T05:49:19.943Z,98.10
2018-02-22T05:50:19.886Z,98.00
2018-02-22T05:51:19.809Z,98.10
2018-02-22T05:52:19.793Z,98.57
2018-02-22T05:53:19.735Z,98.66
2018-02-22T05:54:19.768Z,98.19
2018-02-22T05:55:19.785Z,98.10
2018-02-22T05:56:19.640Z,98.28
2018-02-22T05:57:19.585Z,98.76
2018-02-22T05:58:19.552Z,98.66
2018-02-22T05:59:19.525Z,98.66
2018-02-22T06:00:19.485Z,98.38
2018-02-22T06:01:19.453Z,98.38
2018-02-22T06:02:19.412Z,98.47
2018-02-22T06:03:19.398Z,98.57
2018-02-22T06:04:19.337Z,98.38
2018-02-22T06:05:19.305Z,97.91
2018-02-22T06:06:19.285Z,98.19
2018-02-22T06:07:19.281Z,98.47
2018-02-22T06:08:19.201Z,98.47
2018-02-22T06:09:19.162Z,98.57
2018-02-22T06:10:19.152Z,98.66
2018-02-22T06:11:19.109Z,98.85
2018-02-22T06:12:19.264Z,98.10
2018-02-22T06:13:19.032Z,98.47
2018-02-22T06:14:18.997Z,98.57
2018-02-22T06:15:18.962Z,98.28
2018-02-22T06:16:18.921Z,98.38
2018-02-22T06:17:18.887Z,99.42
2018-02-22T06:18:18.873Z,99.14
2018-02-22T06:19:18.846Z,99.42
2018-02-22T06:20:18.785Z,99.33
2018-02-22T06:21:18.743Z,98.66
2018-02-22T06:22:18.713Z,98.38
2018-02-22T06:23:18.773Z,98.47
2018-02-22T06:24:18.640Z,99.23
2018-02-22T06:25:18.603Z,99.52
2018-02-22T06:26:18.650Z,99.52
2018-02-22T06:27:18.586Z,98.66
2018-02-22T06:28:18.552Z,98.47
2018-02-22T06:29:18.466Z,98.76
2018-02-22T06:30:18.448Z,98.28
2018-02-22T06:31:18.513Z,98.76
2018-02-22T06:32:18.365Z,98.10
2018-02-22T06:33:18.455Z,98.19
2018-02-22T06:34:18.298Z,98.85
2018-02-22T06:35:18.340Z,98.66
2018-02-22T06:36:18.334Z,99.23
2018-02-22T06:37:18.178Z,99.14
2018-02-22T06:38:18.201Z,99.42
2018-02-22T06:39:18.109Z,99.14
2018-02-22T06:40:18.179Z,99.23
2018-02-22T06:41:18.154Z,99.14
2018-02-22T06:42:18.032Z,98.66
2018-02-22T06:43:18.291Z,98.66
2018-02-22T06:44:17.940Z,98.47
2018-02-22T06:45:17.968Z,98.95
2018-02-22T06:46:17.868Z,98.57
2018-02-22T06:47:17.949Z,98.76
2018-02-22T06:48:17.806Z,98.76
2018-02-22T06:49:17.762Z,98.85
2018-02-22T06:50:17.732Z,99.42
2018-02-22T06:51:17.718Z,99.33
2018-02-22T06:52:17.654Z,99.33
2018-02-22T06:53:17.622Z,99.33
2018-02-22T06:54:17.582Z,99.33
2018-02-22T06:55:17.547Z,99.33
2018-02-22T06:56:17.514Z,99.52
2018-02-22T06:57:17.486Z,99.52
2018-02-22T06:58:17.563Z,99.52
2018-02-22T06:59:17.411Z,98.95
2018-02-22T07:00:17.424Z,99.42
2018-02-22T07:01:17.348Z,99.61
2018-02-22T07:02:17.315Z,99.71
2018-02-22T07:03:17.321Z,99.33
2018-02-22T07:04:17.282Z,99.33
2018-02-22T07:05:17.261Z,99.33
2018-02-22T07:06:17.164Z,99.61
2018-02-22T07:07:17.193Z,98.76
2018-02-22T07:08:17.090Z,99.14
2018-02-22T07:09:17.180Z,99.52
2018-02-22T07:10:17.508Z,98.57
2018-02-22T07:11:17.092Z,98.47
2018-02-22T07:12:16.955Z,98.47
2018-02-22T07:13:16.918Z,98.38
2018-02-22T07:14:16.912Z,98.85
2018-02-22T07:15:16.878Z,98.85
2018-02-22T07:16:16.901Z,98.38
2018-02-22T07:17:16.847Z,98.38
2018-02-22T07:18:16.744Z,98.47
2018-02-22T07:19:16.709Z,98.47
2018-02-22T07:20:16.687Z,98.10
2018-02-22T07:21:16.723Z,98.38
2018-02-22T07:22:16.613Z,98.85
2018-02-22T07:23:17.006Z,98.10
2018-02-22T07:24:16.610Z,98.19
2018-02-22T07:25:16.580Z,98.10
2018-02-22T07:26:16.555Z,98.66
2018-02-22T07:27:16.490Z,98.28
2018-02-22T07:28:16.512Z,98.47
2018-02-22T07:29:16.476Z,98.57
2018-02-22T07:30:16.397Z,98.76
2018-02-22T07:31:16.379Z,98.47
2018-02-22T07:32:16.343Z,98.66
2018-02-22T07:33:16.300Z,98.66
2018-02-22T07:34:16.306Z,98.47
2018-02-22T07:35:16.244Z,98.10
2018-02-22T07:36:16.163Z,97.53
2018-02-22T07:37:16.162Z,97.77
2018-02-22T07:38:16.110Z,98.10
2018-02-22T07:39:16.101Z,97.86
2018-02-22T07:40:16.046Z,98.10
2018-02-22T07:41:16.038Z,97.81
2018-02-22T07:42:15.968Z,98.19
2018-02-22T07:43:15.930Z,97.58
2018-02-22T07:44:15.889Z,97.49
2018-02-22T07:45:15.879Z,97.01
2018-02-22T07:46:15.840Z,97.58
2018-02-22T07:47:15.856Z,97.58
2018-02-22T07:48:15.762Z,97.20
2018-02-22T07:49:15.770Z,97.01
2018-02-22T07:50:15.691Z,97.49
2018-02-22T07:51:15.649Z,97.67
2018-02-22T07:52:15.597Z,97.67
2018-02-22T07:53:15.594Z,97.01
2018-02-22T07:54:15.580Z,97.58
2018-02-22T07:55:15.510Z,97.11
2018-02-22T07:56:15.530Z,97.39
2018-02-22T07:57:15.425Z,97.39
2018-02-22T07:58:15.404Z,96.83
2018-02-22T07:59:15.402Z,96.64
2018-02-22T08:00:15.350Z,96.07
2018-02-22T08:01:15.305Z,96.35
2018-02-22T08:02:15.273Z,96.16
2018-02-22T08:03:15.229Z,96.07
2018-02-22T08:04:15.212Z,95.97
2018-02-22T08:05:15.353Z,95.88
2018-02-22T08:06:15.122Z,95.88
2018-02-22T08:07:15.146Z,95.69
2018-02-22T08:08:15.056Z,95.78
2018-02-22T08:09:14.989Z,95.50
2018-02-22T08:10:14.982Z,95.97
2018-02-22T08:11:15.024Z,96.07
2018-02-22T08:12:14.937Z,95.69
2018-02-22T08:13:14.905Z,95.31
2018-02-22T08:14:14.904Z,94.93
2018-02-22T08:15:14.839Z,94.84
2018-02-22T08:16:14.843Z,95.12
2018-02-22T08:17:14.771Z,94.93
2018-02-22T08:18:14.705Z,94.93
2018-02-22T08:19:14.664Z,95.12
2018-02-22T08:20:14.705Z,95.21
2018-02-22T08:21:14.606Z,94.18
2018-02-22T08:22:14.610Z,94.18
2018-02-22T08:23:14.566Z,94.74
2018-02-22T08:24:14.553Z,93.94
2018-02-22T08:25:14.484Z,93.51
2018-02-22T08:26:14.465Z,93.66
2018-02-22T08:27:14.428Z,94.04
2018-02-22T08:28:14.366Z,94.23
2018-02-22T08:29:14.323Z,93.18
2018-02-22T08:30:14.307Z,93.85
2018-02-22T08:31:14.282Z,93.94
2018-02-22T08:32:14.216Z,93.56
2018-02-22T08:33:14.198Z,93.28
2018-02-22T08:34:14.145Z,93.09
2018-02-22T08:35:14.123Z,92.80
2018-02-22T08:36:14.151Z,92.90
2018-02-22T08:37:14.065Z,92.80
2018-02-22T08:38:14.060Z,93.18
2018-02-22T08:39:14.100Z,92.33
2018-02-22T08:40:13.973Z,92.61
2018-02-22T08:41:13.974Z,92.05
2018-02-22T08:42:13.877Z,91.67
2018-02-22T08:43:13.871Z,92.05
2018-02-22T08:44:13.834Z,91.58
2018-02-22T08:45:13.791Z,91.48
2018-02-22T08:46:13.774Z,91.67
2018-02-22T08:47:13.706Z,91.58
2018-02-22T08:48:13.687Z,91.01
2018-02-22T08:49:13.649Z,91.10
2018-02-22T08:50:13.686Z,91.10
2018-02-22T08:51:13.631Z,91.01
2018-02-22T08:52:13.554Z,90.91
2018-02-22T08:53:13.503Z,90.72
2018-02-22T08:54:13.526Z,90.34
2018-02-22T08:55:13.472Z,90.44
2018-02-22T08:56:13.429Z,90.25
2018-02-22T08:57:13.402Z,90.58
2018-02-22T08:58:13.389Z,90.06
2018-02-22T08:59:13.344Z,89.59
2018-02-22T09:00:13.286Z,90.20
2018-02-22T09:01:13.264Z,89.54
2018-02-22T09:02:13.186Z,89.54
2018-02-22T09:03:13.183Z,89.87
2018-02-22T09:04:13.157Z,90.25
2018-02-22T09:05:13.088Z,89.54
2018-02-22T09:06:13.081Z,89.02
2018-02-22T09:07:13.041Z,89.54
2018-02-22T09:08:13.036Z,89.44
2018-02-22T09:09:13.017Z,88.97
2018-02-22T09:10:12.986Z,89.44
2018-02-22T09:11:12.918Z,88.78
2018-02-22T09:12:12.849Z,88.68
2018-02-22T09:13:12.854Z,88.40
2018-02-22T09:14:12.810Z,88.59
2018-02-22T09:15:12.774Z,88.12
2018-02-22T09:16:12.746Z,88.40
2018-02-22T09:17:12.696Z,88.02
2018-02-22T09:18:12.651Z,87.84
2018-02-22T09:19:12.639Z,87.55
2018-02-22T09:20:12.623Z,87.65
2018-02-22T09:21:12.583Z,87.17
2018-02-22T09:22:12.533Z,86.70
2018-02-22T09:23:12.505Z,86.51
2018-02-22T09:24:12.474Z,85.99
2018-02-22T09:25:12.466Z,86.13
2018-02-22T09:26:12.416Z,85.99
2018-02-22T09:27:12.376Z,85.89
2018-02-22T09:28:12.334Z,86.08
2018-02-22T09:29:12.340Z,85.70
2018-02-22T09:30:12.287Z,85.28
2018-02-22T09:31:12.213Z,85.32
2018-02-22T09:32:12.223Z,85.04
2018-02-22T09:33:12.171Z,85.23
2018-02-22T09:34:12.160Z,85.61
2018-02-22T09:35:12.139Z,85.32
2018-02-22T09:36:12.042Z,84.94
2018-02-22T09:37:12.147Z,85.23
2018-02-22T09:38:12.053Z,84.38
2018-02-22T09:39:11.973Z,84.09
2018-02-22T09:40:11.934Z,83.81
2018-02-22T09:41:11.905Z,83.71
2018-02-22T09:42:11.868Z,83.62
2018-02-22T09:43:11.829Z,84.09
2018-02-22T09:44:11.823Z,82.95
2018-02-22T09:45:11.795Z,82.48
2018-02-22T09:46:11.692Z,83.09
2018-02-22T09:47:11.712Z,82.71
2018-02-22T09:48:11.650Z,82.90
2018-02-22T09:49:11.636Z,82.71
2018-02-22T09:50:11.605Z,82.05
2018-02-22T09:51:11.517Z,81.86
2018-02-22T09:52:11.527Z,81.86
2018-02-22T09:53:11.532Z,82.14
2018-02-22T09:54:11.462Z,81.38
2018-02-22T09:55:11.458Z,81.57
2018-02-22T09:56:11.385Z,81.10
2018-02-22T09:57:11.348Z,81.01
2018-02-22T09:58:11.326Z,81.10
2018-02-22T09:59:11.252Z,80.53
2018-02-22T10:00:11.217Z,79.87
2018-02-22T10:01:11.180Z,79.87
2018-02-22T10:02:11.291Z,79.30
2018-02-22T10:03:11.161Z,78.83
2018-02-22T10:04:11.125Z,79.11
2018-02-22T10:05:11.053Z,78.35
2018-02-22T10:06:11.185Z,79.25
2018-02-22T10:07:11.148Z,78.58
2018-02-22T10:08:10.954Z,78.20
2018-02-22T10:09:10.928Z,78.49
2018-02-22T10:10:10.893Z,78.02
2018-02-22T10:11:10.852Z,78.30
2018-02-22T10:12:10.958Z,77.06
2018-02-22T10:13:10.792Z,76.68
2018-02-22T10:14:10.757Z,77.25
2018-02-22T10:15:10.770Z,77.16
2018-02-22T10:16:10.728Z,77.06
2018-02-22T10:17:10.659Z,76.40
2018-02-22T10:18:10.665Z,76.40
2018-02-22T10:19:10.631Z,76.31
2018-02-22T10:20:10.612Z,76.50
2018-02-22T10:21:10.535Z,75.84
2018-02-22T10:22:10.668Z,74.88
2018-02-22T10:23:10.580Z,75.26
2018-02-22T10:24:10.436Z,75.36
2018-02-22T10:25:10.405Z,74.69
2018-02-22T10:26:10.381Z,74.22
2018-02-22T10:27:10.357Z,74.03
2018-02-22T10:28:10.303Z,74.88
2018-02-22T10:29:10.284Z,74.41
2018-02-22T10:30:10.253Z,73.94
2018-02-22T10:31:10.208Z,73.88
2018-02-22T10:32:10.174Z,73.65
2018-02-22T10:33:10.247Z,73.31
2018-02-22T10:34:10.109Z,73.60
2018-02-22T10:35:10.087Z,73.12
2018-02-22T10:36:10.068Z,73.37
2018-02-22T10:37:10.140Z,72.89
2018-02-22T10:38:09.989Z,73.46
2018-02-22T10:39:10.056Z,73.12
2018-02-22T10:40:09.929Z,72.74
2018-02-22T10:41:09.892Z,71.89
2018-02-22T10:42:09.880Z,71.22
2018-02-22T10:43:09.863Z,71.80
2018-02-22T10:44:09.792Z,71.13
2018-02-22T10:45:09.783Z,71.03
2018-02-22T10:46:09.737Z,71.51
2018-02-22T10:47:09.731Z,71.51
2018-02-22T10:48:09.692Z,71.41
2018-02-22T10:49:09.745Z,71.32
2018-02-22T10:50:09.658Z,71.13
2018-02-22T10:51:09.616Z,71.22
2018-02-22T10:52:09.542Z,71.51
2018-02-22T10:53:09.548Z,70.56
2018-02-22T10:54:09.565Z,71.03
2018-02-22T10:55:09.453Z,70.28
2018-02-22T10:56:09.412Z,70.94
2018-02-22T10:57:09.475Z,71.13
2018-02-22T10:58:10.238Z,70.28
2018-02-22T10:59:09.422Z,70.84
2018-02-22T11:00:09.286Z,70.65
2018-02-22T11:01:10.128Z,70.59
2018-02-22T11:02:09.250Z,69.46
2018-02-22T11:03:09.212Z,69.36
2018-02-22T11:04:09.216Z,68.38
2018-02-22T11:05:09.132Z,68.38
2018-02-22T11:06:09.119Z,68.04
2018-02-22T11:07:09.068Z,67.85
2018-02-22T11:08:09.090Z,68.13
2018-02-22T11:09:09.090Z,68.13
2018-02-22T11:10:09.015Z,68.32
2018-02-22T11:11:09.104Z,67.27
2018-02-22T11:12:08.905Z,67.37
2018-02-22T11:13:08.929Z,67.08
2018-02-22T11:14:08.899Z,67.75
2018-02-22T11:15:08.855Z,66.80
2018-02-22T11:16:09.117Z,66.99
2018-02-22T11:17:09.012Z,66.42
2018-02-22T11:18:09.633Z,66.04
2018-02-22T11:19:08.693Z,66.23
2018-02-22T11:20:08.710Z,65.79
2018-02-22T11:21:08.705Z,66.04
2018-02-22T11:22:08.599Z,65.41
2018-02-22T11:23:08.636Z,65.12
2018-02-22T11:24:08.580Z,64.65
2018-02-22T11:25:08.513Z,64.65
2018-02-22T11:26:08.468Z,64.75
2018-02-22T11:27:08.484Z,63.95
2018-02-22T11:28:08.437Z,63.79
2018-02-22T11:29:08.598Z,64.37
2018-02-22T11:30:08.432Z,63.89
2018-02-22T11:31:08.323Z,64.08
2018-02-22T11:32:08.287Z,64.27
2018-02-22T11:33:08.376Z,63.79
2018-02-22T11:34:08.225Z,63.51
2018-02-22T11:35:08.196Z,63.13
2018-02-22T11:36:08.194Z,62.75
2018-02-22T11:37:08.160Z,62.18
2018-02-22T11:38:08.104Z,62.27
2018-02-22T11:39:08.173Z,61.71
2018-02-22T11:40:08.042Z,61.90
2018-02-22T11:41:08.042Z,62.27
2018-02-22T11:42:08.169Z,62.08
2018-02-22T11:43:07.952Z,62.18
2018-02-22T11:44:07.920Z,62.37
2018-02-22T11:45:07.923Z,61.33
2018-02-22T11:46:07.859Z,60.66
2018-02-22T11:47:08.006Z,59.71
2018-02-22T11:48:07.891Z,59.62
2018-02-22T11:49:07.875Z,59.24
2018-02-22T11:50:07.883Z,59.43
2018-02-22T11:51:07.738Z,59.71
2018-02-22T11:52:07.678Z,58.67
2018-02-22T11:53:07.819Z,58.10
2018-02-22T11:54:07.644Z,58.10
2018-02-22T11:55:07.581Z,57.37
2018-02-22T11:56:07.563Z,56.32
2018-02-22T11:57:07.542Z,56.23
2018-02-22T11:58:07.502Z,55.78
2018-02-22T11:59:07.460Z,54.74
2018-02-22T12:00:07.445Z,54.67
2018-02-22T12:01:07.400Z,53.49
2018-02-22T12:02:07.436Z,51.58
2018-02-22T12:03:07.369Z,49.96
2018-02-22T12:04:07.314Z,49.99
2018-02-22T12:05:07.393Z,48.32
2018-02-22T12:06:07.298Z,46.51
2018-02-22T12:07:07.224Z,46.13
2018-02-22T12:08:07.195Z,45.03
2018-02-22T12:09:07.187Z,44.27
2018-02-22T12:10:07.291Z,43.37
2018-02-22T12:11:07.117Z,44.32
2018-02-22T12:12:07.091Z,44.20
2018-02-22T12:13:07.058Z,45.14
2018-02-22T12:14:07.203Z,45.51
2018-02-22T12:15:06.997Z,45.83
2018-02-22T12:16:07.043Z,45.37
2018-02-22T12:17:06.944Z,44.80
2018-02-22T12:18:06.933Z,44.92
2018-02-22T12:19:06.880Z,44.23
2018-02-22T12:20:06.851Z,43.84
2018-02-22T12:21:06.832Z,44.70
2018-02-22T12:22:06.794Z,44.89
2018-02-22T12:23:06.771Z,44.32
2018-02-22T12:24:06.929Z,44.13
2018-02-22T12:25:06.731Z,44.99
2018-02-22T12:26:06.770Z,45.08
2018-02-22T12:27:06.671Z,45.18
2018-02-22T12:28:06.770Z,44.70
2018-02-22T12:29:06.607Z,44.70
2018-02-22T12:30:06.711Z,45.08
2018-02-22T12:31:06.554Z,44.06
2018-02-22T12:32:06.584Z,43.58
2018-02-22T12:33:06.504Z,43.10
2018-02-22T12:34:06.475Z,42.72
2018-02-22T12:35:06.618Z,42.27
2018-02-22T12:36:06.417Z,42.24
2018-02-22T12:37:06.389Z,42.27
2018-02-22T12:38:06.371Z,41.60
2018-02-22T12:39:06.337Z,41.29
2018-02-22T12:40:06.392Z,41.48
2018-02-22T12:41:06.423Z,41.39
2018-02-22T12:42:06.480Z,41.46
2018-02-22T12:43:06.241Z,42.15
2018-02-22T12:44:06.216Z,41.17
2018-02-22T12:45:06.300Z,41.41
2018-02-22T12:46:06.162Z,41.58
2018-02-22T12:47:06.138Z,41.22
2018-02-22T12:48:06.125Z,39.71
2018-02-22T12:49:06.082Z,40.36
2018-02-22T12:50:06.066Z,40.36
2018-02-22T12:51:06.081Z,40.17
2018-02-22T12:52:06.002Z,40.09